createdAt,value
2018-09-25T00:01:49.329Z,102870.02
2018-09-25T00:04:24.643Z,102866.22
2018-09-25T00:07:00.066Z,102867.47
2018-09-25T00:09:35.407Z,102870.84
2018-09-25T00:12:10.983Z,102864.86
2018-09-25T00:14:46.488Z,102871.23
2018-09-25T00:17:22.928Z,102875.09
2018-09-25T00:19:58.470Z,102869.54
2018-09-25T00:22:34.065Z,102866.98
2018-09-25T00:25:09.481Z,102866.53
2018-09-25T00:27:44.824Z,102864.38
2018-09-25T00:30:21.331Z,102865.71
2018-09-25T00:32:56.689Z,102865.72
2018-09-25T00:35:31.889Z,102868.34
2018-09-25T00:38:07.096Z,102866.22
2018-09-25T00:40:42.368Z,102865.67
2018-09-25T00:43:17.768Z,102864.84
2018-09-25T00:45:53.071Z,102874.24
2018-09-25T00:48:28.456Z,102871.20
2018-09-25T00:51:03.785Z,102874.62
2018-09-25T00:53:39.116Z,102874.23
2018-09-25T00:56:14.347Z,102877.73
2018-09-25T00:58:49.564Z,102874.80
2018-09-25T01:01:24.726Z,102888.20
2018-09-25T01:04:00.090Z,102879.23
2018-09-25T01:06:35.356Z,102879.30
2018-09-25T01:09:12.337Z,102884.02
2018-09-25T01:11:47.818Z,102887.22
2018-09-25T01:14:23.103Z,102882.05
2018-09-25T01:16:58.437Z,102888.06
2018-09-25T01:19:33.684Z,102877.29
2018-09-25T01:22:08.936Z,102892.81
2018-09-25T01:24:44.317Z,102889.42
2018-09-25T01:27:19.395Z,102883.02
2018-09-25T01:29:54.746Z,102892.00
2018-09-25T01:32:29.972Z,102891.98
2018-09-25T01:35:05.553Z,102894.16
2018-09-25T01:37:40.756Z,102898.88
2018-09-25T01:40:16.133Z,102903.56
2018-09-25T01:42:51.508Z,102909.13
2018-09-25T01:45:26.788Z,102911.30
2018-09-25T01:48:02.120Z,102913.72
2018-09-25T01:50:37.491Z,102909.09
2018-09-25T01:53:12.723Z,102909.05
2018-09-25T01:55:48.023Z,102905.13
2018-09-25T01:58:23.564Z,102906.92
2018-09-25T02:00:59.031Z,102908.92
2018-09-25T02:03:34.400Z,102904.98
2018-09-25T02:06:09.811Z,102911.78
2018-09-25T02:08:44.945Z,102913.09
2018-09-25T02:11:20.356Z,102918.67
2018-09-25T02:13:55.650Z,102917.31
2018-09-25T02:16:31.071Z,102923.81
2018-09-25T02:19:06.341Z,102928.50
2018-09-25T02:21:41.595Z,102935.34
2018-09-25T02:24:16.857Z,102936.13
2018-09-25T02:26:52.083Z,102942.11
2018-09-25T02:29:27.479Z,102943.00
2018-09-25T02:32:02.756Z,102939.60
2018-09-25T02:34:38.170Z,102939.25
2018-09-25T02:37:13.789Z,102936.33
2018-09-25T02:39:49.206Z,102932.95
2018-09-25T02:42:24.679Z,102940.75
2018-09-25T02:45:00.056Z,102947.58
2018-09-25T02:47:35.459Z,102948.13
2018-09-25T02:50:10.900Z,102950.81
2018-09-25T02:52:46.185Z,102947.83
2018-09-25T02:55:21.580Z,102945.30
2018-09-25T02:57:57.773Z,102947.41
2018-09-25T03:00:33.138Z,102946.57
2018-09-25T03:03:08.661Z,102942.33
2018-09-25T03:05:43.926Z,102939.28
2018-09-25T03:08:19.222Z,102944.87
2018-09-25T03:10:54.423Z,102943.92
2018-09-25T03:13:29.770Z,102951.63
2018-09-25T03:16:05.384Z,102951.56
2018-09-25T03:18:40.809Z,102956.66
2018-09-25T03:21:16.109Z,102957.88
2018-09-25T03:23:51.378Z,102958.30
2018-09-25T03:26:26.842Z,102958.33
2018-09-25T03:29:02.388Z,102966.05
2018-09-25T03:31:37.647Z,102965.16
2018-09-25T03:34:13.115Z,102959.61
2018-09-25T03:36:48.499Z,102967.80
2018-09-25T03:39:23.948Z,102971.34
2018-09-25T03:41:59.375Z,102970.48
2018-09-25T03:44:34.708Z,102970.52
2018-09-25T03:47:10.023Z,102969.28
2018-09-25T03:49:45.436Z,102962.84
2018-09-25T03:52:20.924Z,102967.11
2018-09-25T03:54:56.442Z,102970.13
2018-09-25T03:57:31.695Z,102970.06
2018-09-25T04:00:07.200Z,102978.23
2018-09-25T04:02:42.601Z,102981.63
2018-09-25T04:05:18.225Z,102986.39
2018-09-25T04:07:53.479Z,102982.48
2018-09-25T04:10:28.711Z,102984.53
2018-09-25T04:13:03.807Z,102986.56
2018-09-25T04:15:39.136Z,102990.43
2018-09-25T04:18:14.420Z,102995.11
2018-09-25T04:20:49.763Z,102994.67
2018-09-25T04:23:25.147Z,102993.73
2018-09-25T04:26:00.700Z,103005.27
2018-09-25T04:28:36.078Z,103006.54
2018-09-25T04:31:11.391Z,103013.41
2018-09-25T04:33:46.754Z,103013.83
2018-09-25T04:36:22.091Z,103014.64
2018-09-25T04:38:57.536Z,103020.15
2018-09-25T04:41:33.032Z,103018.38
2018-09-25T04:44:08.540Z,103022.60
2018-09-25T04:46:43.951Z,103023.91
2018-09-25T04:49:19.271Z,103015.67
2018-09-25T04:51:55.395Z,103021.17
2018-09-25T04:54:30.797Z,103026.28
2018-09-25T04:57:06.272Z,103034.38
2018-09-25T04:59:41.543Z,103032.22
2018-09-25T05:02:16.887Z,103030.51
2018-09-25T05:04:52.143Z,103033.53
2018-09-25T05:07:27.555Z,103036.00
2018-09-25T05:10:02.968Z,103039.36
2018-09-25T05:12:38.220Z,103047.08
2018-09-25T05:15:13.599Z,103049.69
2018-09-25T05:17:48.811Z,103047.45
2018-09-25T05:20:24.107Z,103058.27
2018-09-25T05:22:59.503Z,103056.13
2018-09-25T05:25:34.814Z,103051.45
2018-09-25T05:28:10.104Z,103052.34
2018-09-25T05:30:45.536Z,103053.66
2018-09-25T05:33:20.825Z,103058.13
2018-09-25T05:35:56.100Z,103057.36
2018-09-25T05:38:31.504Z,103053.60
2018-09-25T05:41:07.033Z,103052.80
2018-09-25T05:43:42.287Z,103052.63
2018-09-25T05:46:17.985Z,103061.61
2018-09-25T05:48:53.344Z,103061.94
2018-09-25T05:51:28.719Z,103058.62
2018-09-25T05:54:03.847Z,103055.46
2018-09-25T05:56:39.191Z,103048.77
2018-09-25T05:59:14.402Z,103053.86
2018-09-25T06:01:49.706Z,103062.50
2018-09-25T06:04:25.059Z,103062.05
2018-09-25T06:07:00.272Z,103070.47
2018-09-25T06:09:35.484Z,103069.69
2018-09-25T06:12:10.977Z,103077.28
2018-09-25T06:14:46.299Z,103073.33
2018-09-25T06:17:21.780Z,103079.41
2018-09-25T06:19:57.280Z,103079.33
2018-09-25T06:22:32.587Z,103086.02
2018-09-25T06:25:07.926Z,103077.74
2018-09-25T06:27:43.354Z,103080.01
2018-09-25T06:30:18.673Z,103078.38
2018-09-25T06:32:54.205Z,103087.23
2018-09-25T06:35:29.553Z,103090.53
2018-09-25T06:38:04.873Z,103098.63
2018-09-25T06:40:40.234Z,103102.03
2018-09-25T06:43:15.815Z,103101.91
2018-09-25T06:45:51.127Z,103108.20
2018-09-25T06:48:26.626Z,103118.22
2018-09-25T06:51:02.146Z,103117.80
2018-09-25T06:53:37.430Z,103110.05
2018-09-25T06:56:12.948Z,103126.82
2018-09-25T06:58:48.372Z,103123.78
2018-09-25T07:01:23.596Z,103115.95
2018-09-25T07:03:58.856Z,103118.23
2018-09-25T07:06:34.283Z,103124.35
2018-09-25T07:09:11.102Z,103130.20
2018-09-25T07:11:46.483Z,103128.67
2018-09-25T07:14:21.615Z,103134.66
2018-09-25T07:16:56.848Z,103130.00
2018-09-25T07:19:32.120Z,103129.72
2018-09-25T07:22:07.489Z,103129.64
2018-09-25T07:24:43.003Z,103140.94
2018-09-25T07:27:18.244Z,103142.44
2018-09-25T07:29:53.591Z,103148.36
2018-09-25T07:32:29.131Z,103145.59
2018-09-25T07:35:04.369Z,103148.72
2018-09-25T07:37:39.711Z,103142.27
2018-09-25T07:40:14.851Z,103148.70
2018-09-25T07:42:50.376Z,103155.69
2018-09-25T07:45:25.940Z,103154.86
2018-09-25T07:48:01.259Z,103159.50
2018-09-25T07:50:36.562Z,103168.45
2018-09-25T07:53:11.904Z,103161.44
2018-09-25T07:55:47.213Z,103162.75
2018-09-25T07:58:22.609Z,103165.55
2018-09-25T08:00:57.807Z,103167.78
2018-09-25T08:03:33.275Z,103172.30
2018-09-25T08:06:08.751Z,103177.25
2018-09-25T08:08:43.970Z,103174.20
2018-09-25T08:11:19.405Z,103182.44
2018-09-25T08:13:54.998Z,103184.08
2018-09-25T08:16:30.442Z,103191.61
2018-09-25T08:19:06.061Z,103200.68
2018-09-25T08:21:41.583Z,103195.93
2018-09-25T08:24:16.716Z,103197.73
2018-09-25T08:26:51.948Z,103203.80
2018-09-25T08:29:27.297Z,103204.97
2018-09-25T08:32:02.655Z,103199.19
2018-09-25T08:34:37.954Z,103205.92
2018-09-25T08:37:13.636Z,103200.52
2018-09-25T08:39:49.295Z,103202.68
2018-09-25T08:42:24.731Z,103204.30
2018-09-25T08:45:00.200Z,103206.56
2018-09-25T08:47:35.658Z,103216.98
2018-09-25T08:50:11.164Z,103213.86
2018-09-25T08:52:46.515Z,103208.42
2018-09-25T08:55:22.021Z,103208.39
2018-09-25T08:57:57.386Z,103216.09
2018-09-25T09:00:32.935Z,103219.20
2018-09-25T09:03:08.423Z,103227.31
2018-09-25T09:05:44.388Z,103220.88
2018-09-25T09:08:20.220Z,103220.28
2018-09-25T09:10:55.711Z,103232.69
2018-09-25T09:13:31.165Z,103231.36
2018-09-25T09:16:06.619Z,103234.59
2018-09-25T09:18:41.972Z,103233.29
2018-09-25T09:21:17.194Z,103239.17
2018-09-25T09:23:52.515Z,103235.69
2018-09-25T09:26:27.840Z,103238.16
2018-09-25T09:29:03.177Z,103238.55
2018-09-25T09:31:38.480Z,103245.45
2018-09-25T09:34:14.005Z,103243.02
2018-09-25T09:36:49.459Z,103242.47
2018-09-25T09:39:24.835Z,103240.68
2018-09-25T09:42:00.273Z,103247.75
2018-09-25T09:44:35.413Z,103250.49
2018-09-25T09:47:10.905Z,103243.92
2018-09-25T09:49:46.250Z,103246.66
2018-09-25T09:52:21.511Z,103234.41
2018-09-25T09:54:57.947Z,103241.29
2018-09-25T09:57:33.129Z,103237.47
2018-09-25T10:00:08.475Z,103238.42
2018-09-25T10:02:43.785Z,103249.21
2018-09-25T10:05:19.247Z,103244.31
2018-09-25T10:07:54.375Z,103246.59
2018-09-25T10:10:29.713Z,103244.02
2018-09-25T10:13:05.184Z,103243.64
2018-09-25T10:15:40.737Z,103248.28
2018-09-25T10:18:16.033Z,103250.70
2018-09-25T10:20:51.263Z,103237.09
2018-09-25T10:23:26.564Z,103235.66
2018-09-25T10:26:01.747Z,103239.58
2018-09-25T10:28:36.995Z,103237.48
2018-09-25T10:31:12.432Z,103249.38
2018-09-25T10:33:47.960Z,103246.45
2018-09-25T10:36:23.499Z,103252.20
2018-09-25T10:38:58.983Z,103251.52
2018-09-25T10:41:34.332Z,103254.41
2018-09-25T10:44:09.693Z,103248.14
2018-09-25T10:46:45.091Z,103251.20
2018-09-25T10:49:20.492Z,103251.07
2018-09-25T10:51:55.796Z,103247.43
2018-09-25T10:54:31.252Z,103248.73
2018-09-25T10:57:06.772Z,103253.70
2018-09-25T10:59:42.152Z,103248.20
2018-09-25T11:02:17.552Z,103249.96
2018-09-25T11:04:52.916Z,103249.78
2018-09-25T11:07:28.231Z,103248.77
2018-09-25T11:10:03.896Z,103245.33
2018-09-25T11:12:39.233Z,103246.08
2018-09-25T11:15:14.923Z,103254.97
2018-09-25T11:17:50.407Z,103247.27
2018-09-25T11:20:25.787Z,103251.44
2018-09-25T11:23:01.007Z,103246.04
2018-09-25T11:25:36.387Z,103249.72
2018-09-25T11:28:11.780Z,103251.57
2018-09-25T11:30:47.275Z,103252.02
2018-09-25T11:33:22.538Z,103251.70
2018-09-25T11:35:58.062Z,103252.59
2018-09-25T11:38:33.411Z,103247.76
2018-09-25T11:41:08.736Z,103238.35
2018-09-25T11:43:44.032Z,103236.27
2018-09-25T11:46:19.334Z,103234.15
2018-09-25T11:48:54.810Z,103225.50
2018-09-25T11:51:30.317Z,103221.88
2018-09-25T11:54:05.816Z,103219.92
2018-09-25T11:56:41.322Z,103224.45
2018-09-25T11:59:16.730Z,103228.00
2018-09-25T12:01:51.982Z,103240.37
2018-09-25T12:04:27.263Z,103233.52
2018-09-25T12:07:02.822Z,103241.08
2018-09-25T12:09:38.090Z,103236.26
2018-09-25T12:12:13.533Z,103239.57
2018-09-25T12:14:48.885Z,103238.45
2018-09-25T12:17:24.171Z,103238.43
2018-09-25T12:19:59.350Z,103234.95
2018-09-25T12:22:34.853Z,103228.78
2018-09-25T12:25:10.060Z,103233.75
2018-09-25T12:27:46.084Z,103237.35
2018-09-25T12:30:21.596Z,103232.97
2018-09-25T12:32:56.899Z,103231.69
2018-09-25T12:35:32.416Z,103228.84
2018-09-25T12:38:07.748Z,103215.09
2018-09-25T12:40:43.043Z,103220.24
2018-09-25T12:43:18.311Z,103217.50
2018-09-25T12:45:53.783Z,103218.78
2018-09-25T12:48:29.012Z,103215.89
2018-09-25T12:51:04.484Z,103209.37
2018-09-25T12:53:40.012Z,103204.48
2018-09-25T12:56:15.475Z,103197.96
2018-09-25T12:58:51.195Z,103197.25
2018-09-25T13:01:26.649Z,103197.42
2018-09-25T13:04:01.890Z,103201.98
2018-09-25T13:06:37.055Z,103200.85
2018-09-25T13:09:15.008Z,103209.24
2018-09-25T13:11:51.063Z,103210.24
2018-09-25T13:14:26.539Z,103209.39
2018-09-25T13:17:01.942Z,103208.72
2018-09-25T13:19:37.202Z,103208.17
2018-09-25T13:22:12.697Z,103192.13
2018-09-25T13:24:48.360Z,103171.89
2018-09-25T13:27:23.767Z,103177.86
2018-09-25T13:29:59.172Z,103184.05
2018-09-25T13:32:34.336Z,103186.31
2018-09-25T13:35:09.675Z,103184.57
2018-09-25T13:37:44.905Z,103188.41
2018-09-25T13:40:20.269Z,103197.66
2018-09-25T13:42:55.560Z,103191.53
2018-09-25T13:45:30.903Z,103177.55
2018-09-25T13:48:06.215Z,103178.42
2018-09-25T13:50:41.488Z,103176.59
2018-09-25T13:53:16.764Z,103176.19
2018-09-25T13:55:52.108Z,103170.58
2018-09-25T13:58:27.619Z,103168.80
2018-09-25T14:01:03.213Z,103160.73
2018-09-25T14:03:38.452Z,103156.19
2018-09-25T14:06:14.042Z,103152.88
2018-09-25T14:08:49.606Z,103155.33
2018-09-25T14:11:24.843Z,103155.90
2018-09-25T14:14:00.304Z,103157.48
2018-09-25T14:16:35.709Z,103154.02
2018-09-25T14:19:11.213Z,103155.83
2018-09-25T14:21:46.413Z,103154.12
2018-09-25T14:24:21.940Z,103155.44
2018-09-25T14:26:57.440Z,103144.08
2018-09-25T14:29:32.822Z,103138.72
2018-09-25T14:32:08.133Z,103130.33
2018-09-25T14:34:43.382Z,103129.02
2018-09-25T14:37:18.855Z,103127.84
2018-09-25T14:39:54.223Z,103125.80
2018-09-25T14:42:29.553Z,103124.78
2018-09-25T14:45:05.117Z,103134.33
2018-09-25T14:47:40.374Z,103133.91
2018-09-25T14:50:15.621Z,103134.02
2018-09-25T14:52:50.952Z,103133.48
2018-09-25T14:55:26.157Z,103135.33
2018-09-25T14:58:01.675Z,103134.84
2018-09-25T15:00:37.739Z,103129.03
2018-09-25T15:03:13.178Z,103122.83
2018-09-25T15:05:48.487Z,103121.33
2018-09-25T15:08:23.764Z,103115.75
2018-09-25T15:10:59.249Z,103118.95
2018-09-25T15:13:34.774Z,103114.28
2018-09-25T15:16:10.402Z,103112.89
2018-09-25T15:18:45.905Z,103112.50
2018-09-25T15:21:21.644Z,103111.98
2018-09-25T15:23:56.855Z,103111.68
2018-09-25T15:26:32.278Z,103119.69
2018-09-25T15:29:07.385Z,103116.30
2018-09-25T15:31:42.797Z,103119.47
2018-09-25T15:34:18.020Z,103118.84
2018-09-25T15:36:53.432Z,103121.08
2018-09-25T15:39:28.819Z,103129.49
2018-09-25T15:42:04.423Z,103129.30
2018-09-25T15:44:39.993Z,103131.87
2018-09-25T15:47:15.623Z,103129.42
2018-09-25T15:49:50.889Z,103126.38
2018-09-25T15:52:26.264Z,103130.49
2018-09-25T15:55:01.540Z,103125.66
2018-09-25T15:57:36.723Z,103131.01
2018-09-25T16:00:12.167Z,103134.22
2018-09-25T16:02:47.684Z,103138.70
2018-09-25T16:05:22.980Z,103147.03
2018-09-25T16:07:58.542Z,103149.94
2018-09-25T16:10:34.007Z,103148.30
2018-09-25T16:13:09.441Z,103145.80
2018-09-25T16:15:44.751Z,103150.46
2018-09-25T16:18:20.236Z,103153.00
2018-09-25T16:20:55.443Z,103150.91
2018-09-25T16:23:30.710Z,103153.05
2018-09-25T16:26:05.922Z,103148.45
2018-09-25T16:28:41.382Z,103153.81
2018-09-25T16:31:16.608Z,103148.30
2018-09-25T16:33:51.923Z,103135.53
2018-09-25T16:36:27.206Z,103129.22
2018-09-25T16:39:02.684Z,103136.83
2018-09-25T16:41:38.260Z,103135.72
2018-09-25T16:44:13.913Z,103140.72
2018-09-25T16:46:49.186Z,103136.22
2018-09-25T16:49:24.616Z,103133.38
2018-09-25T16:51:59.979Z,103132.22
2018-09-25T16:54:35.395Z,103146.88
2018-09-25T16:57:11.020Z,103148.09
2018-09-25T16:59:46.402Z,103162.27
2018-09-25T17:02:21.890Z,103159.88
2018-09-25T17:04:57.339Z,103161.45
2018-09-25T17:07:32.920Z,103169.53
2018-09-25T17:10:08.181Z,103174.95
2018-09-25T17:12:43.503Z,103167.34
2018-09-25T17:15:18.839Z,103180.05
2018-09-25T17:17:54.009Z,103179.74
2018-09-25T17:20:29.385Z,103185.89
2018-09-25T17:23:04.595Z,103180.78
2018-09-25T17:25:40.039Z,103182.98
2018-09-25T17:28:15.224Z,103183.50
2018-09-25T17:30:50.396Z,103177.15
2018-09-25T17:33:25.883Z,103178.07
2018-09-25T17:36:01.441Z,103174.70
2018-09-25T17:38:36.844Z,103174.31
2018-09-25T17:41:12.320Z,103172.30
2018-09-25T17:43:47.728Z,103171.53
2018-09-25T17:46:23.250Z,103180.74
2018-09-25T17:48:58.528Z,103178.69
2018-09-25T17:51:33.856Z,103188.30
2018-09-25T17:54:09.214Z,103182.75
2018-09-25T17:56:44.517Z,103179.80
2018-09-25T17:59:19.918Z,103180.31
2018-09-25T18:01:55.442Z,103179.11
2018-09-25T18:04:30.725Z,103184.38
2018-09-25T18:07:05.935Z,103174.50
2018-09-25T18:09:41.561Z,103164.23
2018-09-25T18:12:17.259Z,103156.94
2018-09-25T18:14:52.514Z,103150.94
2018-09-25T18:17:27.846Z,103147.97
2018-09-25T18:20:03.148Z,103144.47
2018-09-25T18:22:38.659Z,103141.52
2018-09-25T18:25:13.973Z,103138.09
2018-09-25T18:27:49.372Z,103141.13
2018-09-25T18:30:24.663Z,103140.69
2018-09-25T18:32:59.840Z,103137.65
2018-09-25T18:35:35.117Z,103143.75
2018-09-25T18:38:10.536Z,103147.22
2018-09-25T18:40:46.337Z,103150.23
2018-09-25T18:43:21.736Z,103147.64
2018-09-25T18:45:56.993Z,103150.25
2018-09-25T18:48:32.338Z,103152.42
2018-09-25T18:51:07.633Z,103152.41
2018-09-25T18:53:43.137Z,103150.30
2018-09-25T18:56:18.764Z,103155.47
2018-09-25T18:58:54.003Z,103156.34
2018-09-25T19:01:29.488Z,103165.87
2018-09-25T19:04:04.875Z,103159.39
2018-09-25T19:06:40.318Z,103164.62
2018-09-25T19:09:15.984Z,103176.23
2018-09-25T19:11:51.162Z,103170.23
2018-09-25T19:14:26.588Z,103167.64
2018-09-25T19:17:02.044Z,103163.77
2018-09-25T19:19:37.573Z,103167.23
2018-09-25T19:22:12.797Z,103168.96
2018-09-25T19:24:48.174Z,103165.96
2018-09-25T19:27:29.862Z,103165.11
2018-09-25T19:30:05.202Z,103168.98
2018-09-25T19:32:40.252Z,103156.94
2018-09-25T19:35:15.469Z,103161.66
2018-09-25T19:37:50.399Z,103155.63
2018-09-25T19:40:25.415Z,103161.67
2018-09-25T19:43:00.941Z,103163.86
2018-09-25T19:45:36.491Z,103164.28
2018-09-25T19:48:12.029Z,103166.88
2018-09-25T19:50:47.307Z,103172.89
2018-09-25T19:53:22.820Z,103175.47
2018-09-25T19:55:58.011Z,103181.53
2018-09-25T19:58:33.409Z,103175.91
2018-09-25T20:01:08.812Z,103173.28
2018-09-25T20:03:44.000Z,103175.45
2018-09-25T20:06:19.352Z,103171.55
2018-09-25T20:08:54.792Z,103173.72
2018-09-25T20:11:30.220Z,103171.11
2018-09-25T20:14:05.634Z,103171.12
2018-09-25T20:16:40.964Z,103171.09
2018-09-25T20:19:16.159Z,103162.90
2018-09-25T20:21:51.487Z,103164.20
2018-09-25T20:24:26.807Z,103159.00
2018-09-25T20:27:02.250Z,103168.08
2018-09-25T20:29:37.687Z,103162.47
2018-09-25T20:32:13.283Z,103161.17
2018-09-25T20:34:48.743Z,103157.70
2018-09-25T20:37:24.120Z,103168.05
2018-09-25T20:39:59.615Z,103163.73
2018-09-25T20:42:35.036Z,103159.00
2018-09-25T20:45:10.550Z,103164.14
2018-09-25T20:47:46.109Z,103161.55
2018-09-25T20:50:21.607Z,103165.44
2018-09-25T20:52:56.893Z,103158.97
2018-09-25T20:55:32.267Z,103150.33
2018-09-25T20:58:07.891Z,103148.59
2018-09-25T21:00:43.502Z,103141.25
2018-09-25T21:03:18.836Z,103151.59
2018-09-25T21:05:54.048Z,103154.12
2018-09-25T21:08:29.217Z,103149.40
2018-09-25T21:11:04.515Z,103141.61
2018-09-25T21:13:39.668Z,103135.09
2018-09-25T21:16:15.084Z,103129.94
2018-09-25T21:18:50.376Z,103124.77
2018-09-25T21:21:25.851Z,103131.67
2018-09-25T21:24:07.956Z,103126.95
2018-09-25T21:26:43.208Z,103126.50
2018-09-25T21:29:18.479Z,103116.13
2018-09-25T21:31:53.781Z,103118.31
2018-09-25T21:34:29.192Z,103114.84
2018-09-25T21:37:04.724Z,103118.30
2018-09-25T21:39:40.201Z,103130.78
2018-09-25T21:42:15.546Z,103126.91
2018-09-25T21:44:50.767Z,103122.20
2018-09-25T21:47:26.113Z,103115.29
2018-09-25T21:50:01.459Z,103123.48
2018-09-25T21:52:36.731Z,103115.33
2018-09-25T21:55:12.255Z,103123.08
2018-09-25T21:57:47.538Z,103122.28
2018-09-25T22:00:23.875Z,103107.22
2018-09-25T22:02:59.300Z,103107.19
2018-09-25T22:05:34.688Z,103108.95
2018-09-25T22:08:10.060Z,103098.14
2018-09-25T22:10:45.510Z,103097.73
2018-09-25T22:13:20.799Z,103101.17
2018-09-25T22:15:56.147Z,103096.85
2018-09-25T22:18:31.571Z,103083.50
2018-09-25T22:21:06.840Z,103075.71
2018-09-25T22:23:42.285Z,103067.52
2018-09-25T22:26:17.758Z,103064.08
2018-09-25T22:28:53.063Z,103067.92
2018-09-25T22:31:28.632Z,103076.51
2018-09-25T22:34:04.069Z,103084.30
2018-09-25T22:36:39.523Z,103089.91
2018-09-25T22:39:16.292Z,103083.90
2018-09-25T22:41:51.879Z,103089.06
2018-09-25T22:44:27.258Z,103084.30
2018-09-25T22:47:02.621Z,103080.42
2018-09-25T22:49:38.060Z,103084.29
2018-09-25T22:52:13.540Z,103083.84
2018-09-25T22:54:48.636Z,103087.28
2018-09-25T22:57:23.991Z,103085.58
2018-09-25T22:59:59.471Z,103078.23
2018-09-25T23:02:34.928Z,103067.88
2018-09-25T23:05:11.316Z,103067.81
2018-09-25T23:07:46.627Z,103064.39
2018-09-25T23:10:22.038Z,103055.36
2018-09-25T23:12:57.363Z,103051.03
2018-09-25T23:15:32.724Z,103047.11
2018-09-25T23:18:08.100Z,103050.12
2018-09-25T23:20:43.400Z,103047.95
2018-09-25T23:23:18.679Z,103053.11
2018-09-25T23:25:54.030Z,103050.91
2018-09-25T23:28:29.237Z,103059.48
2018-09-25T23:31:04.611Z,103057.73
2018-09-25T23:33:40.022Z,103054.31
2018-09-25T23:36:15.411Z,103049.11
2018-09-25T23:38:50.669Z,103048.19
2018-09-25T23:41:43.541Z,103041.73
2018-09-25T23:44:51.720Z,103047.80
2018-09-25T23:47:33.373Z,103043.49
2018-09-25T23:50:09.472Z,103040.50
2018-09-25T23:53:57.888Z,103034.00
2018-09-25T23:56:36.178Z,103027.60
2018-09-25T23:59:11.289Z,103028.46
